Time;durP1;ratioP1;P1;durP2;ratioP2;P2;SDS_P1;SDS_P2;PMS_P1;PMS_P2;Temp;Humidity;BMP_temperature;BMP_pressure;BME280_temperature;BME280_humidity;BME280_pressure;Samples;Min_cycle;Max_cycle;Signal;HPM_P1;HPM_P2
2023/10/16 00:00:30;;;;;;;1.83;1.73;;;;;;;;;;4954557;28;20451;-60
2023/10/16 00:02:59;;;;;;;2.10;2.10;;;;;;;;;;4954445;28;20882;-60
2023/10/16 00:05:33;;;;;;;2.30;2.20;;;;;;;;;;4954375;28;20436;-60
2023/10/16 00:08:05;;;;;;;2.10;1.90;;;;;;;;;;4954593;28;20518;-60
2023/10/16 00:10:34;;;;;;;2.03;1.90;;;;;;;;;;4954586;28;20402;-60
2023/10/16 00:13:04;;;;;;;1.87;1.80;;;;;;;;;;4954449;28;20475;-60
2023/10/16 00:15:34;;;;;;;1.70;1.50;;;;;;;;;;4954228;28;20899;-60
2023/10/16 00:18:02;;;;;;;2.10;1.60;;;;;;;;;;4954103;28;20445;-60
2023/10/16 00:20:28;;;;;;;8.90;1.90;;;;;;;;;;4953023;28;20465;-60
2023/10/16 00:22:54;;;;;;;1.40;1.30;;;;;;;;;;4954107;28;20896;-60
2023/10/16 00:25:24;;;;;;;2.83;2.00;;;;;;;;;;4954445;28;20426;-60
2023/10/16 00:27:50;;;;;;;1.53;1.17;;;;;;;;;;4954876;28;20447;-60
2023/10/16 00:30:19;;;;;;;1.33;1.23;;;;;;;;;;4954105;28;20906;-59
2023/10/16 00:32:45;;;;;;;3.70;1.27;;;;;;;;;;4955279;28;20450;-60
2023/10/16 00:35:11;;;;;;;2.70;1.60;;;;;;;;;;4957719;28;20829;-60
2023/10/16 00:37:41;;;;;;;1.70;1.60;;;;;;;;;;4957944;28;20471;-60
2023/10/16 00:40:10;;;;;;;9.33;2.03;;;;;;;;;;4957729;28;20431;-60
2023/10/16 00:42:43;;;;;;;2.83;1.57;;;;;;;;;;4958006;28;20439;-60
2023/10/16 00:45:11;;;;;;;1.77;1.50;;;;;;;;;;4958380;28;20432;-60
2023/10/16 00:47:39;;;;;;;2.50;2.40;;;;;;;;;;4958090;28;20465;-60
2023/10/16 00:50:06;;;;;;;2.27;1.87;;;;;;;;;;4958204;28;20507;-60
2023/10/16 00:52:34;;;;;;;5.40;2.23;;;;;;;;;;4957550;28;20422;-60
2023/10/16 00:55:03;;;;;;;1.57;1.57;;;;;;;;;;4957430;28;20900;-60
2023/10/16 00:57:30;;;;;;;2.27;2.17;;;;;;;;;;4956424;28;20844;-60
2023/10/16 00:59:58;;;;;;;3.13;2.10;;;;;;;;;;4957397;28;20389;-60
2023/10/16 01:02:31;;;;;;;2.17;2.07;;;;;;;;;;4957247;28;20439;-60
2023/10/16 01:04:57;;;;;;;2.33;2.07;;;;;;;;;;4957358;28;20514;-60
2023/10/16 01:07:24;;;;;;;2.93;2.00;;;;;;;;;;4957640;28;20942;-60
2023/10/16 01:09:52;;;;;;;2.30;2.13;;;;;;;;;;4957433;28;20390;-60
2023/10/16 01:12:20;;;;;;;3.27;2.60;;;;;;;;;;4956045;28;20451;-60
2023/10/16 01:14:47;;;;;;;2.37;2.17;;;;;;;;;;4957506;28;20865;-60
2023/10/16 01:17:29;;;;;;;2.60;2.50;;;;;;;;;;4957230;28;20415;-60
2023/10/16 01:19:56;;;;;;;2.70;2.60;;;;;;;;;;4957440;28;20375;-60
2023/10/16 01:22:22;;;;;;;2.73;2.63;;;;;;;;;;4956009;28;20534;-60
2023/10/16 01:24:51;;;;;;;2.60;2.43;;;;;;;;;;4956983;28;20419;-60
2023/10/16 01:27:26;;;;;;;2.87;2.63;;;;;;;;;;4957134;28;20458;-60
2023/10/16 01:29:53;;;;;;;2.50;2.40;;;;;;;;;;4956748;28;20921;-60
2023/10/16 01:32:19;;;;;;;2.60;2.50;;;;;;;;;;4957051;28;20412;-60
2023/10/16 01:34:46;;;;;;;2.67;2.57;;;;;;;;;;4957123;28;20407;-60
2023/10/16 01:37:18;;;;;;;4.87;2.90;;;;;;;;;;4956958;28;20394;-60
2023/10/16 01:39:53;;;;;;;3.53;2.87;;;;;;;;;;4957011;28;20403;-60
2023/10/16 01:42:19;;;;;;;13.43;3.23;;;;;;;;;;4956437;28;20385;-60
2023/10/16 01:44:45;;;;;;;2.87;2.77;;;;;;;;;;4957031;28;20392;-60
2023/10/16 01:47:18;;;;;;;2.73;2.53;;;;;;;;;;4956863;28;20405;-60
2023/10/16 01:49:47;;;;;;;2.40;2.30;;;;;;;;;;4956572;28;20398;-60
2023/10/16 01:52:14;;;;;;;9.63;3.00;;;;;;;;;;4956556;28;20419;-60
2023/10/16 01:54:44;;;;;;;3.20;3.00;;;;;;;;;;4956413;28;20914;-60
2023/10/16 01:57:10;;;;;;;2.70;2.60;;;;;;;;;;4956830;28;20469;-60
2023/10/16 01:59:49;;;;;;;4.77;2.60;;;;;;;;;;4956611;28;20386;-60
2023/10/16 02:02:17;;;;;;;2.70;2.50;;;;;;;;;;4956374;28;20447;-60
2023/10/16 02:04:45;;;;;;;2.90;2.77;;;;;;;;;;4956441;28;20764;-60
2023/10/16 02:07:14;;;;;;;2.90;2.63;;;;;;;;;;4955168;28;20420;-60
2023/10/16 02:09:40;;;;;;;5.80;2.93;;;;;;;;;;4955465;29;20370;-60
2023/10/16 02:12:16;;;;;;;2.87;2.73;;;;;;;;;;4956389;28;20767;-60
2023/10/16 02:14:42;;;;;;;3.00;2.87;;;;;;;;;;4956217;28;20396;-60
2023/10/16 02:17:24;;;;;;;2.80;2.70;;;;;;;;;;4956251;28;20390;-60
2023/10/16 02:19:52;;;;;;;3.23;2.93;;;;;;;;;;4956983;28;20483;-60
2023/10/16 02:22:22;;;;;;;3.27;2.70;;;;;;;;;;4956210;28;20414;-60
2023/10/16 02:24:49;;;;;;;3.60;3.27;;;;;;;;;;4956267;28;20523;-60
2023/10/16 02:27:18;;;;;;;3.43;3.20;;;;;;;;;;4955648;28;20850;-60
2023/10/16 02:29:49;;;;;;;2.67;2.57;;;;;;;;;;4956715;28;20536;-60
2023/10/16 02:32:15;;;;;;;2.70;2.60;;;;;;;;;;4956074;28;20483;-60
2023/10/16 02:34:41;;;;;;;2.87;2.77;;;;;;;;;;4956197;28;20422;-60
2023/10/16 02:37:11;;;;;;;4.60;3.47;;;;;;;;;;4955975;28;20405;-60
2023/10/16 02:39:41;;;;;;;2.63;2.53;;;;;;;;;;4955896;28;20459;-60
2023/10/16 02:42:14;;;;;;;2.53;2.33;;;;;;;;;;4955967;28;20483;-60
2023/10/16 02:44:42;;;;;;;2.80;2.70;;;;;;;;;;4956067;28;20419;-60
2023/10/16 02:47:13;;;;;;;2.40;2.30;;;;;;;;;;4955650;28;20817;-60
2023/10/16 02:49:47;;;;;;;3.13;2.93;;;;;;;;;;4956132;28;20447;-60
2023/10/16 02:52:14;;;;;;;2.40;2.30;;;;;;;;;;4955446;28;20779;-60
2023/10/16 02:54:40;;;;;;;2.87;2.53;;;;;;;;;;4954854;28;20425;-60
2023/10/16 02:57:10;;;;;;;2.97;2.53;;;;;;;;;;4953633;28;20427;-60
2023/10/16 02:59:36;;;;;;;4.10;2.87;;;;;;;;;;4955295;28;20779;-60
2023/10/16 03:02:05;;;;;;;3.00;2.77;;;;;;;;;;4955371;28;20413;-60
2023/10/16 03:04:33;;;;;;;2.87;2.67;;;;;;;;;;4955071;29;20390;-60
2023/10/16 03:06:59;;;;;;;2.83;2.63;;;;;;;;;;4955384;28;20469;-60
2023/10/16 03:09:28;;;;;;;3.60;3.23;;;;;;;;;;4955351;28;20402;-60
2023/10/16 03:12:04;;;;;;;2.90;2.80;;;;;;;;;;4955041;28;20769;-59
2023/10/16 03:14:36;;;;;;;2.80;2.70;;;;;;;;;;4955007;28;20278;-60
2023/10/16 03:17:09;;;;;;;8.03;2.83;;;;;;;;;;4954848;28;20453;-60
2023/10/16 03:19:35;;;;;;;4.30;3.10;;;;;;;;;;4955157;28;20483;-60
2023/10/16 03:22:11;;;;;;;3.73;3.20;;;;;;;;;;4955508;28;20441;-60
2023/10/16 03:24:37;;;;;;;4.00;3.03;;;;;;;;;;4955311;28;20443;-60
2023/10/16 03:27:08;;;;;;;3.40;3.10;;;;;;;;;;4955114;28;20400;-60
2023/10/16 03:29:34;;;;;;;3.43;3.33;;;;;;;;;;4955066;28;20443;-60
2023/10/16 03:32:00;;;;;;;4.93;3.10;;;;;;;;;;4954921;28;20407;-60
2023/10/16 03:34:31;;;;;;;6.53;3.07;;;;;;;;;;4954589;28;20382;-60
2023/10/16 03:37:01;;;;;;;5.13;3.40;;;;;;;;;;4953675;28;20457;-60
2023/10/16 03:39:27;;;;;;;3.37;3.17;;;;;;;;;;4954632;28;20476;-60
2023/10/16 03:41:53;;;;;;;3.67;3.30;;;;;;;;;;4954792;28;20836;-60
2023/10/16 03:44:21;;;;;;;6.10;3.83;;;;;;;;;;4954784;28;20445;-60
2023/10/16 03:46:50;;;;;;;3.92;3.08;;;;;;;;;;4954797;28;20415;-60
2023/10/16 03:49:17;;;;;;;3.10;3.00;;;;;;;;;;4954727;28;20196;-60
2023/10/16 03:51:48;;;;;;;4.60;4.20;;;;;;;;;;4954808;29;20562;-60
2023/10/16 03:54:16;;;;;;;3.10;2.80;;;;;;;;;;4954380;28;20439;-59
2023/10/16 03:56:42;;;;;;;3.72;3.53;;;;;;;;;;4955340;28;20386;-59
2023/10/16 03:59:14;;;;;;;3.00;2.90;;;;;;;;;;4954341;28;20725;-60
2023/10/16 04:01:44;;;;;;;3.37;3.10;;;;;;;;;;4954258;28;20199;-59
2023/10/16 04:04:12;;;;;;;4.27;3.80;;;;;;;;;;4954600;28;20443;-60
2023/10/16 04:06:39;;;;;;;3.43;3.27;;;;;;;;;;4953844;28;20390;-60
2023/10/16 04:09:09;;;;;;;3.50;3.20;;;;;;;;;;4954066;28;20413;-60
2023/10/16 04:11:37;;;;;;;3.40;2.83;;;;;;;;;;4954676;28;20429;-60
2023/10/16 04:14:08;;;;;;;3.17;2.97;;;;;;;;;;4954459;28;20417;-60
2023/10/16 04:16:43;;;;;;;4.00;3.00;;;;;;;;;;4954271;28;20498;-60
2023/10/16 04:21:42;;;;;;;4.43;3.33;;;;;;;;;;4954599;28;20359;-60
2023/10/16 04:29:45;;;;;;;6.37;3.27;;;;;;;;;;4954631;28;20908;-60
2023/10/16 04:32:37;;;;;;;3.87;3.40;;;;;;;;;;4954299;28;20401;-60
2023/10/16 04:35:27;;;;;;;3.20;3.00;;;;;;;;;;4954220;28;20393;-60
2023/10/16 04:37:54;;;;;;;3.77;3.10;;;;;;;;;;4953875;28;20454;-60
2023/10/16 04:43:37;;;;;;;25.20;17.67;;;;;;;;;;4954414;29;20389;-60
2023/10/16 04:46:23;;;;;;;4.60;4.20;;;;;;;;;;4954147;28;20437;-60
2023/10/16 04:48:50;;;;;;;3.63;3.43;;;;;;;;;;4954069;28;20415;-60
2023/10/16 04:51:17;;;;;;;4.70;3.10;;;;;;;;;;4954292;28;20833;-60
2023/10/16 04:53:58;;;;;;;2.80;2.70;;;;;;;;;;4954064;28;20401;-60
2023/10/16 05:02:16;;;;;;;3.23;3.13;;;;;;;;;;4954045;29;20404;-60
2023/10/16 05:07:46;;;;;;;6.40;3.10;;;;;;;;;;4953468;29;20389;-60
2023/10/16 05:13:22;;;;;;;2.80;2.70;;;;;;;;;;4954040;29;20434;-60
2023/10/16 05:18:51;;;;;;;6.00;5.47;;;;;;;;;;4954208;28;20222;-60
2023/10/16 06:14:13;;;;;;;21.13;11.40;;;;;;;;;;4956356;29;20678;-60
2023/10/16 06:16:42;;;;;;;66.90;30.53;;;;;;;;;;4956196;28;20379;-60
2023/10/16 06:19:17;;;;;;;7.33;6.67;;;;;;;;;;4956006;28;20441;-59
2023/10/16 06:21:46;;;;;;;10.20;9.00;;;;;;;;;;4954756;28;20443;-60
2023/10/16 06:24:26;;;;;;;4.57;4.07;;;;;;;;;;4956068;28;20390;-60
2023/10/16 06:26:59;;;;;;;4.20;3.53;;;;;;;;;;4955680;28;20934;-60
2023/10/16 06:29:34;;;;;;;4.80;3.73;;;;;;;;;;4955642;28;20766;-60
2023/10/16 06:32:06;;;;;;;4.73;4.00;;;;;;;;;;4954958;28;20423;-60
2023/10/16 06:34:33;;;;;;;3.37;3.27;;;;;;;;;;4955338;28;20393;-60
2023/10/16 06:37:05;;;;;;;8.80;4.20;;;;;;;;;;4955647;28;20477;-60
2023/10/16 06:39:36;;;;;;;8.63;4.67;;;;;;;;;;4955815;28;20471;-60
2023/10/16 06:42:03;;;;;;;10.30;3.80;;;;;;;;;;4954822;28;20390;-60
2023/10/16 06:44:31;;;;;;;4.23;3.83;;;;;;;;;;4955676;28;20395;-60
2023/10/16 06:47:01;;;;;;;3.20;3.00;;;;;;;;;;4955467;28;20511;-60
2023/10/16 06:49:35;;;;;;;7.00;3.80;;;;;;;;;;4955591;28;20416;-60
2023/10/16 06:52:04;;;;;;;3.70;3.50;;;;;;;;;;4955428;28;20415;-60
2023/10/16 06:54:37;;;;;;;3.60;3.30;;;;;;;;;;4955604;28;20896;-60
2023/10/16 06:57:12;;;;;;;4.00;3.70;;;;;;;;;;4955411;28;20410;-60
2023/10/16 06:59:44;;;;;;;4.07;3.73;;;;;;;;;;4955404;28;20211;-60
2023/10/16 07:02:15;;;;;;;3.80;3.60;;;;;;;;;;4955314;29;20986;-60
2023/10/16 07:04:47;;;;;;;3.83;3.73;;;;;;;;;;4955225;28;20426;-60
2023/10/16 07:07:17;;;;;;;4.93;4.53;;;;;;;;;;4955293;28;20760;-60
2023/10/16 07:09:47;;;;;;;7.00;5.93;;;;;;;;;;4954851;28;20944;-60
2023/10/16 07:12:18;;;;;;;6.67;6.13;;;;;;;;;;4955050;28;20485;-60
2023/10/16 07:15:08;;;;;;;45.83;30.33;;;;;;;;;;4953559;28;20393;-60
2023/10/16 07:17:36;;;;;;;6.57;6.13;;;;;;;;;;4955062;28;20382;-60
2023/10/16 07:20:17;;;;;;;5.27;4.40;;;;;;;;;;4953741;28;20428;-60
2023/10/16 07:22:43;;;;;;;4.80;4.50;;;;;;;;;;4954794;28;20394;-60
2023/10/16 07:25:25;;;;;;;10.33;4.50;;;;;;;;;;4954888;28;20381;-60
2023/10/16 07:27:57;;;;;;;4.77;4.03;;;;;;;;;;4954956;28;20487;-60
2023/10/16 07:30:25;;;;;;;4.33;4.03;;;;;;;;;;4955018;28;20415;-60
2023/10/16 07:32:51;;;;;;;17.40;12.80;;;;;;;;;;4954966;28;20842;-60
2023/10/16 07:35:18;;;;;;;8.83;5.30;;;;;;;;;;4953621;28;20458;-60
2023/10/16 07:37:48;;;;;;;4.70;4.30;;;;;;;;;;4954453;28;20965;-60
2023/10/16 07:40:15;;;;;;;6.27;4.87;;;;;;;;;;4954611;28;20411;-60
2023/10/16 07:42:41;;;;;;;8.73;6.20;;;;;;;;;;4954349;28;20418;-60
2023/10/16 07:45:08;;;;;;;4.97;4.63;;;;;;;;;;4954514;28;20435;-60
2023/10/16 07:47:34;;;;;;;6.07;5.50;;;;;;;;;;4953468;28;20420;-60
2023/10/16 07:50:00;;;;;;;5.67;5.27;;;;;;;;;;4954487;28;20921;-60
2023/10/16 07:52:30;;;;;;;7.93;4.87;;;;;;;;;;4954636;28;20423;-60
2023/10/16 07:54:56;;;;;;;4.53;4.13;;;;;;;;;;4954244;28;20423;-61
2023/10/16 07:57:24;;;;;;;3.95;3.80;;;;;;;;;;4954297;28;20443;-60
2023/10/16 07:59:54;;;;;;;4.30;4.10;;;;;;;;;;4954069;28;20462;-60
2023/10/16 08:02:20;;;;;;;4.20;3.90;;;;;;;;;;4953089;28;20451;-60
2023/10/16 08:04:51;;;;;;;4.53;4.00;;;;;;;;;;4954469;28;20891;-60
2023/10/16 08:07:40;;;;;;;6.73;4.20;;;;;;;;;;4954559;28;20387;-60
2023/10/16 08:12:51;;;;;;;4.60;4.07;;;;;;;;;;4953913;29;20418;-60
2023/10/16 08:15:21;;;;;;;4.57;4.00;;;;;;;;;;4954151;28;20411;-61
2023/10/16 08:17:47;;;;;;;4.20;4.10;;;;;;;;;;4954269;29;20525;-60
2023/10/16 08:20:20;;;;;;;4.73;4.40;;;;;;;;;;4953971;28;20423;-60
2023/10/16 08:22:46;;;;;;;4.10;3.90;;;;;;;;;;4954408;28;20434;-60
2023/10/16 08:25:30;;;;;;;4.00;3.67;;;;;;;;;;4952485;28;20918;-60
2023/10/16 08:27:58;;;;;;;3.90;3.63;;;;;;;;;;4952673;28;20898;-60
2023/10/16 08:30:33;;;;;;;4.23;3.97;;;;;;;;;;4954659;28;20411;-61
2023/10/16 08:33:09;;;;;;;4.03;3.90;;;;;;;;;;4954016;28;20467;-60
2023/10/16 08:35:41;;;;;;;3.73;3.53;;;;;;;;;;4954448;28;20917;-60
2023/10/16 08:38:14;;;;;;;4.00;3.80;;;;;;;;;;4954059;28;20493;-60
2023/10/16 08:40:44;;;;;;;4.37;4.00;;;;;;;;;;4954170;28;20840;-60
2023/10/16 08:43:10;;;;;;;5.70;5.40;;;;;;;;;;4954302;28;20588;-60
2023/10/16 08:45:49;;;;;;;4.33;4.00;;;;;;;;;;4954014;28;20427;-60
2023/10/16 08:48:17;;;;;;;3.53;3.33;;;;;;;;;;4954076;28;20419;-60
2023/10/16 08:50:52;;;;;;;3.30;3.13;;;;;;;;;;4954074;28;20451;-60
2023/10/16 08:53:31;;;;;;;3.73;3.43;;;;;;;;;;4954091;28;20464;-60
2023/10/16 08:55:59;;;;;;;2.97;2.80;;;;;;;;;;4957828;28;20454;-61
2023/10/16 08:58:26;;;;;;;3.97;2.83;;;;;;;;;;4957422;28;20466;-61
2023/10/16 09:00:53;;;;;;;2.90;2.80;;;;;;;;;;4956043;28;20449;-61
2023/10/16 09:03:20;;;;;;;2.70;2.60;;;;;;;;;;4957283;28;20500;-61
2023/10/16 09:05:46;;;;;;;2.83;2.60;;;;;;;;;;4957246;28;20422;-61
2023/10/16 09:08:14;;;;;;;4.50;2.77;;;;;;;;;;4955795;28;20541;-61
2023/10/16 09:10:41;;;;;;;3.27;2.60;;;;;;;;;;4957268;28;20502;-62
2023/10/16 09:13:13;;;;;;;3.00;2.90;;;;;;;;;;4956830;28;20420;-62
2023/10/16 09:15:45;;;;;;;3.87;3.03;;;;;;;;;;4957379;28;20490;-62
2023/10/16 09:18:11;;;;;;;4.43;2.63;;;;;;;;;;4957158;28;20477;-61
2023/10/16 09:20:41;;;;;;;2.53;2.40;;;;;;;;;;4956850;28;20425;-62
2023/10/16 09:23:07;;;;;;;3.67;3.40;;;;;;;;;;4956949;28;20410;-62
2023/10/16 09:25:34;;;;;;;2.40;2.20;;;;;;;;;;4957216;28;20412;-62
2023/10/16 09:28:04;;;;;;;22.63;13.30;;;;;;;;;;4956704;28;20428;-62
2023/10/16 09:30:33;;;;;;;3.93;3.83;;;;;;;;;;4957136;28;20474;-62
2023/10/16 09:33:00;;;;;;;4.60;4.30;;;;;;;;;;4956615;28;20789;-60
2023/10/16 09:35:32;;;;;;;15.80;14.37;;;;;;;;;;4956728;28;20937;-59
2023/10/16 09:38:23;;;;;;;8.17;5.83;;;;;;;;;;4957099;28;20581;-62
2023/10/16 09:43:40;;;;;;;2.63;2.53;;;;;;;;;;4955875;28;20494;-59
2023/10/16 09:46:33;;;;;;;2.23;2.03;;;;;;;;;;4957320;28;20424;-62
2023/10/16 09:49:05;;;;;;;2.13;2.07;;;;;;;;;;4956150;28;20897;-62
2023/10/16 09:51:35;;;;;;;2.00;2.00;;;;;;;;;;4956653;28;20424;-62
2023/10/16 09:54:02;;;;;;;2.27;2.17;;;;;;;;;;4956666;28;20826;-60
2023/10/16 09:56:29;;;;;;;2.60;2.50;;;;;;;;;;4956537;28;20797;-59
2023/10/16 09:58:56;;;;;;;8.03;2.57;;;;;;;;;;4956579;28;20559;-59
2023/10/16 10:01:29;;;;;;;2.50;2.40;;;;;;;;;;4956692;28;20443;-60
2023/10/16 10:03:58;;;;;;;2.93;2.30;;;;;;;;;;4956797;28;20940;-59
2023/10/16 10:06:34;;;;;;;1.83;1.73;;;;;;;;;;4956233;28;20478;-59
2023/10/16 10:11:44;;;;;;;2.10;2.00;;;;;;;;;;4955997;28;20870;-60
2023/10/16 10:16:56;;;;;;;2.70;2.17;;;;;;;;;;4956243;28;20452;-60
2023/10/16 10:19:31;;;;;;;1.80;1.70;;;;;;;;;;4954772;28;20487;-61
2023/10/16 10:21:57;;;;;;;2.27;2.07;;;;;;;;;;4956115;28;20803;-61
2023/10/16 10:24:24;;;;;;;1.80;1.70;;;;;;;;;;4954428;28;20429;-61
2023/10/16 10:26:55;;;;;;;5.27;2.20;;;;;;;;;;4956168;28;20413;-61
2023/10/16 10:29:22;;;;;;;3.30;1.80;;;;;;;;;;4955938;28;20425;-60
2023/10/16 10:31:50;;;;;;;3.23;1.67;;;;;;;;;;4955839;28;20475;-61
2023/10/16 10:34:23;;;;;;;3.57;1.80;;;;;;;;;;4954822;28;20463;-60
2023/10/16 10:36:53;;;;;;;1.67;1.57;;;;;;;;;;4955647;28;20910;-60
2023/10/16 10:39:22;;;;;;;1.60;1.50;;;;;;;;;;4955897;28;20466;-60
2023/10/16 10:41:53;;;;;;;1.60;1.60;;;;;;;;;;4954464;28;20996;-60
2023/10/16 10:44:29;;;;;;;1.90;1.77;;;;;;;;;;4955986;28;20434;-61
2023/10/16 10:46:55;;;;;;;2.50;1.70;;;;;;;;;;4955787;28;20400;-62
2023/10/16 10:49:33;;;;;;;2.20;1.87;;;;;;;;;;4955403;28;20947;-61
2023/10/16 10:52:01;;;;;;;1.80;1.70;;;;;;;;;;4955403;28;20453;-61
2023/10/16 10:54:27;;;;;;;2.13;1.40;;;;;;;;;;4954762;28;20515;-61
2023/10/16 10:56:59;;;;;;;4.77;1.30;;;;;;;;;;4955347;28;20459;-61
2023/10/16 10:59:40;;;;;;;2.30;1.63;;;;;;;;;;4955076;28;20480;-61
2023/10/16 11:04:42;;;;;;;1.87;1.77;;;;;;;;;;4955547;28;20405;-60
2023/10/16 11:07:11;;;;;;;3.10;1.53;;;;;;;;;;4955234;28;20447;-61
2023/10/16 11:09:38;;;;;;;3.70;2.03;;;;;;;;;;4955451;28;20455;-61
2023/10/16 11:12:08;;;;;;;1.57;1.23;;;;;;;;;;4955409;28;20462;-61
2023/10/16 11:14:36;;;;;;;1.70;1.60;;;;;;;;;;4954926;28;20918;-61
2023/10/16 11:17:05;;;;;;;1.53;1.50;;;;;;;;;;4954509;28;20922;-61
2023/10/16 11:19:47;;;;;;;1.43;1.40;;;;;;;;;;4954794;28;20530;-61
2023/10/16 11:22:17;;;;;;;2.27;1.80;;;;;;;;;;4955048;28;20422;-61
2023/10/16 11:24:43;;;;;;;3.13;1.60;;;;;;;;;;4954805;28;20496;-61
2023/10/16 11:27:13;;;;;;;2.03;1.50;;;;;;;;;;4955089;28;20433;-61
2023/10/16 11:29:40;;;;;;;1.77;1.40;;;;;;;;;;4954543;28;20914;-62
2023/10/16 11:32:14;;;;;;;1.47;1.40;;;;;;;;;;4954773;28;20506;-62
2023/10/16 11:34:51;;;;;;;4.60;3.20;;;;;;;;;;4954243;28;20437;-62
2023/10/16 11:37:25;;;;;;;1.83;1.50;;;;;;;;;;4954759;28;20426;-62
2023/10/16 11:39:51;;;;;;;2.43;2.33;;;;;;;;;;4954454;28;20473;-62
2023/10/16 11:42:17;;;;;;;1.77;1.67;;;;;;;;;;4954286;28;20426;-62
2023/10/16 11:44:44;;;;;;;4.33;1.70;;;;;;;;;;4953560;28;20473;-61
2023/10/16 11:47:18;;;;;;;2.40;2.10;;;;;;;;;;4954845;28;20858;-62
2023/10/16 11:49:53;;;;;;;5.23;1.90;;;;;;;;;;4953346;28;20857;-62
2023/10/16 11:52:23;;;;;;;1.37;1.37;;;;;;;;;;4954826;28;20899;-62
2023/10/16 11:54:53;;;;;;;5.47;1.60;;;;;;;;;;4954173;28;20437;-62
2023/10/16 11:57:19;;;;;;;2.50;1.77;;;;;;;;;;4954203;28;20434;-62
2023/10/16 11:59:45;;;;;;;1.83;1.73;;;;;;;;;;4954554;28;20822;-62
2023/10/16 12:02:17;;;;;;;2.30;1.80;;;;;;;;;;4954083;28;20460;-62
2023/10/16 12:04:44;;;;;;;1.90;1.73;;;;;;;;;;4954262;28;20420;-61
2023/10/16 12:07:12;;;;;;;1.73;1.63;;;;;;;;;;4954522;28;20829;-61
2023/10/16 12:09:48;;;;;;;3.57;1.97;;;;;;;;;;4953823;28;20480;-61
2023/10/16 12:12:20;;;;;;;2.00;1.90;;;;;;;;;;4954273;28;20477;-61
2023/10/16 12:14:49;;;;;;;2.60;1.80;;;;;;;;;;4954456;28;20860;-61
2023/10/16 12:17:17;;;;;;;2.50;1.30;;;;;;;;;;4954537;28;20963;-61
2023/10/16 12:19:47;;;;;;;2.07;1.97;;;;;;;;;;4954248;28;20892;-61
2023/10/16 12:22:15;;;;;;;1.13;1.10;;;;;;;;;;4954554;28;20403;-61
2023/10/16 12:24:44;;;;;;;1.97;1.77;;;;;;;;;;4954270;28;20437;-61
2023/10/16 12:27:10;;;;;;;1.83;1.80;;;;;;;;;;4954297;28;20421;-61
2023/10/16 12:29:41;;;;;;;3.60;1.53;;;;;;;;;;4956527;28;20427;-61
2023/10/16 12:32:07;;;;;;;1.77;1.70;;;;;;;;;;4958068;28;20444;-61
2023/10/16 12:34:35;;;;;;;5.53;1.60;;;;;;;;;;4958133;28;20424;-61
2023/10/16 12:37:06;;;;;;;15.43;11.37;;;;;;;;;;4957690;28;20427;-61
2023/10/16 12:39:35;;;;;;;1.57;1.47;;;;;;;;;;4958227;28;20490;-61
2023/10/16 12:42:06;;;;;;;2.80;1.60;;;;;;;;;;4957784;28;20843;-61
2023/10/16 12:44:32;;;;;;;6.67;1.73;;;;;;;;;;4957607;28;20442;-61
2023/10/16 12:46:58;;;;;;;1.90;1.80;;;;;;;;;;4957679;28;20420;-61
2023/10/16 12:49:25;;;;;;;2.73;1.17;;;;;;;;;;4957396;28;20911;-61
2023/10/16 12:51:53;;;;;;;3.53;1.50;;;;;;;;;;4957760;28;20416;-60
2023/10/16 12:54:24;;;;;;;1.67;1.33;;;;;;;;;;4957859;28;20439;-60
2023/10/16 12:56:52;;;;;;;1.90;1.80;;;;;;;;;;4957252;28;20511;-61
2023/10/16 12:59:19;;;;;;;2.00;1.60;;;;;;;;;;4957749;28;20875;-61
2023/10/16 13:01:49;;;;;;;1.03;1.03;;;;;;;;;;4957711;28;20419;-60
2023/10/16 13:04:16;;;;;;;1.53;1.20;;;;;;;;;;4957509;28;20449;-60
2023/10/16 13:06:43;;;;;;;1.37;1.30;;;;;;;;;;4956502;28;20427;-61
2023/10/16 13:09:17;;;;;;;1.47;1.23;;;;;;;;;;4957312;28;20823;-61
2023/10/16 13:11:46;;;;;;;3.80;1.47;;;;;;;;;;4957431;28;20438;-61
2023/10/16 13:14:12;;;;;;;2.30;2.10;;;;;;;;;;4957364;28;20439;-61
2023/10/16 13:16:53;;;;;;;1.60;1.50;;;;;;;;;;4956681;28;20489;-60
2023/10/16 13:19:19;;;;;;;1.63;1.53;;;;;;;;;;4957441;28;20559;-60
2023/10/16 13:21:51;;;;;;;1.93;1.83;;;;;;;;;;4957307;28;20439;-60
2023/10/16 13:24:20;;;;;;;2.30;1.80;;;;;;;;;;4955624;28;20937;-61
2023/10/16 13:26:47;;;;;;;1.37;1.37;;;;;;;;;;4956834;28;20506;-61
2023/10/16 13:29:17;;;;;;;1.93;1.57;;;;;;;;;;4956877;28;20451;-60
2023/10/16 13:31:47;;;;;;;2.30;1.60;;;;;;;;;;4955547;28;20432;-61
2023/10/16 13:34:17;;;;;;;5.43;1.40;;;;;;;;;;4956771;28;20523;-61
2023/10/16 13:36:56;;;;;;;1.60;1.50;;;;;;;;;;4956671;28;20506;-60
2023/10/16 13:39:31;;;;;;;2.90;1.20;;;;;;;;;;4956331;28;20486;-61
2023/10/16 13:41:57;;;;;;;3.33;1.80;;;;;;;;;;4954979;28;20419;-60
2023/10/16 13:44:24;;;;;;;2.17;1.97;;;;;;;;;;4956819;29;20419;-60
2023/10/16 13:46:51;;;;;;;1.33;1.20;;;;;;;;;;4956818;28;20534;-60
2023/10/16 13:49:18;;;;;;;1.63;1.50;;;;;;;;;;4955271;29;20419;-60
2023/10/16 13:51:44;;;;;;;2.10;1.30;;;;;;;;;;4956888;28;20411;-61
2023/10/16 13:54:16;;;;;;;1.40;1.33;;;;;;;;;;4956315;28;20435;-60
2023/10/16 13:56:43;;;;;;;2.80;1.90;;;;;;;;;;4956334;28;20429;-60
2023/10/16 13:59:12;;;;;;;1.50;1.40;;;;;;;;;;4956820;28;20467;-61
2023/10/16 14:01:39;;;;;;;1.70;1.43;;;;;;;;;;4956449;28;20991;-60
2023/10/16 14:04:16;;;;;;;1.30;1.30;;;;;;;;;;4955929;28;20439;-61
2023/10/16 14:06:52;;;;;;;2.10;1.60;;;;;;;;;;4956737;28;20391;-61
2023/10/16 14:09:27;;;;;;;1.60;1.50;;;;;;;;;;4956077;28;20435;-61
2023/10/16 14:11:53;;;;;;;8.70;2.77;;;;;;;;;;4956002;28;20438;-60
2023/10/16 14:14:19;;;;;;;1.33;1.30;;;;;;;;;;4954561;28;20942;-60
2023/10/16 14:16:46;;;;;;;1.47;1.47;;;;;;;;;;4956141;28;20422;-60
2023/10/16 14:19:15;;;;;;;1.83;1.73;;;;;;;;;;4954437;28;20475;-60
2023/10/16 14:21:41;;;;;;;3.37;1.70;;;;;;;;;;4956145;28;20434;-61
2023/10/16 14:24:08;;;;;;;2.40;1.60;;;;;;;;;;4956098;28;20424;-60
2023/10/16 14:26:36;;;;;;;3.60;1.73;;;;;;;;;;4954493;28;20427;-60
2023/10/16 14:29:03;;;;;;;3.07;2.30;;;;;;;;;;4955940;28;20442;-60
2023/10/16 14:31:30;;;;;;;2.37;2.13;;;;;;;;;;4956055;28;20432;-61
2023/10/16 14:33:58;;;;;;;7.33;1.93;;;;;;;;;;4956049;28;20426;-61
2023/10/16 14:36:29;;;;;;;4.63;2.30;;;;;;;;;;4955986;28;20427;-60
2023/10/16 14:38:59;;;;;;;9.03;1.53;;;;;;;;;;4955700;28;20549;-60
2023/10/16 14:41:25;;;;;;;3.80;1.93;;;;;;;;;;4955936;28;20493;-60
2023/10/16 14:43:51;;;;;;;1.77;1.67;;;;;;;;;;4955687;28;20414;-60
2023/10/16 14:46:21;;;;;;;2.17;2.00;;;;;;;;;;4955575;28;20431;-60
2023/10/16 14:48:47;;;;;;;5.50;2.13;;;;;;;;;;4955856;28;20421;-60
2023/10/16 14:51:15;;;;;;;3.93;2.00;;;;;;;;;;4954414;28;20476;-61
2023/10/16 14:53:48;;;;;;;2.17;2.07;;;;;;;;;;4955709;28;20438;-60
2023/10/16 14:56:18;;;;;;;2.23;2.13;;;;;;;;;;4955360;28;20416;-60
2023/10/16 14:58:44;;;;;;;3.33;1.77;;;;;;;;;;4955113;28;20479;-60
2023/10/16 15:01:19;;;;;;;2.50;2.33;;;;;;;;;;4954958;28;20437;-60
2023/10/16 15:03:46;;;;;;;2.30;2.03;;;;;;;;;;4955250;28;20515;-60
2023/10/16 15:06:15;;;;;;;2.97;2.30;;;;;;;;;;4955424;28;20441;-60
2023/10/16 15:08:44;;;;;;;1.97;1.87;;;;;;;;;;4955535;28;20421;-60
2023/10/16 15:11:11;;;;;;;2.10;2.00;;;;;;;;;;4954786;28;20831;-60
2023/10/16 15:13:37;;;;;;;2.33;2.17;;;;;;;;;;4955036;28;20465;-60
2023/10/16 15:16:06;;;;;;;1.93;1.83;;;;;;;;;;4954869;28;20422;-60
2023/10/16 15:18:38;;;;;;;3.93;3.53;;;;;;;;;;4955084;28;20504;-60
2023/10/16 15:21:04;;;;;;;7.03;3.60;;;;;;;;;;4954995;28;20528;-61
2023/10/16 15:23:31;;;;;;;4.37;2.70;;;;;;;;;;4955057;28;20430;-60
2023/10/16 15:25:57;;;;;;;4.20;3.83;;;;;;;;;;4954758;28;20929;-60
2023/10/16 15:28:25;;;;;;;2.40;2.20;;;;;;;;;;4955191;28;20799;-61
2023/10/16 15:30:54;;;;;;;9.10;2.43;;;;;;;;;;4954814;28;20417;-60
2023/10/16 15:33:21;;;;;;;2.50;2.13;;;;;;;;;;4954733;28;20506;-60
2023/10/16 15:35:51;;;;;;;2.53;1.90;;;;;;;;;;4954445;28;20819;-60
2023/10/16 15:38:23;;;;;;;2.87;2.37;;;;;;;;;;4954904;28;20508;-60
2023/10/16 15:40:53;;;;;;;1.73;1.63;;;;;;;;;;4955153;28;20458;-61
2023/10/16 15:43:22;;;;;;;2.10;1.83;;;;;;;;;;4954337;28;20413;-61
2023/10/16 15:45:50;;;;;;;2.47;2.00;;;;;;;;;;4954652;28;20449;-60
2023/10/16 15:48:21;;;;;;;5.03;2.17;;;;;;;;;;4954607;28;20496;-61
2023/10/16 15:50:48;;;;;;;2.10;2.00;;;;;;;;;;4954717;28;20430;-60
2023/10/16 15:53:14;;;;;;;8.50;2.07;;;;;;;;;;4954577;28;20430;-60
2023/10/16 15:55:46;;;;;;;6.80;2.17;;;;;;;;;;4953392;28;20522;-61
2023/10/16 15:58:12;;;;;;;5.80;2.30;;;;;;;;;;4954615;28;20515;-60
2023/10/16 16:00:40;;;;;;;4.40;1.97;;;;;;;;;;4954506;28;20464;-60
2023/10/16 16:03:08;;;;;;;2.83;1.90;;;;;;;;;;4954033;28;20463;-60
2023/10/16 16:05:34;;;;;;;2.40;1.67;;;;;;;;;;4954262;28;20453;-60
2023/10/16 16:08:04;;;;;;;2.50;2.30;;;;;;;;;;4954272;28;20424;-61
2023/10/16 16:10:33;;;;;;;9.40;1.90;;;;;;;;;;4954514;28;20800;-60
2023/10/16 16:12:59;;;;;;;2.70;2.60;;;;;;;;;;4954363;28;20446;-60
2023/10/16 16:15:26;;;;;;;4.57;2.97;;;;;;;;;;4954557;28;20487;-60
2023/10/16 16:17:54;;;;;;;4.83;3.47;;;;;;;;;;4954404;28;20415;-60
2023/10/16 16:20:21;;;;;;;3.97;3.40;;;;;;;;;;4953157;28;20935;-60
2023/10/16 16:22:47;;;;;;;2.70;1.90;;;;;;;;;;4954659;28;20426;-60
2023/10/16 16:25:13;;;;;;;2.60;2.20;;;;;;;;;;4954348;28;20478;-60
2023/10/16 16:27:40;;;;;;;2.03;1.80;;;;;;;;;;4954039;28;20428;-60
2023/10/16 16:30:07;;;;;;;1.87;1.67;;;;;;;;;;4954140;28;20779;-60